»·PEaware :: N224LW KSNA-KSDM

N224LW :: KSNA-KSDM

FLIGHT INFORMATION

Flight Status: Arrived
Operator: Privately registered:
United States
More flights under this callsign
Pilot: Rod Tataryn (6553)
Aircraft: Unknown
(S22T)
More flights by this aircraft type
Origin: KSNA John Wayne-Orange Co
United States
Destination: KSDM Brown Mun
United States
More flights between these airports :: More routes between these airports
Route: +
File this flight plan on PilotEdge
Remarks:
Altitude:
(Current/Filed)
3,000ft
Speed:
(Current/Filed)
0kts
Departed: 08-Aug-17 10:00 PM
Arrived: 08-Aug-17 10:38 PM
Distance/Time
Traveled:
80nm/0:37
Distance/Time
To Go:
Arrived

Flight Plot

Page will automatically refresh every two minutes.

Flight plan parsing failed; only flown route is shown


Map Options




Map Legend


Flown Route
Filed Route
Departure Airport
Arrival Airport
Navaid (VOR, NDB)
Fix

Horizontal Profiles

Position Reports

Time Latitude Longitude Heading Altitude Ground
Speed
08-Aug-17 22:02 33.631407 -117.427921 60 5430ft 139kts
08-Aug-17 22:03 33.649249 -117.392549 60 5524ft 124kts
08-Aug-17 22:04 33.650277 -117.354580 114 5615ft 135kts
08-Aug-17 22:05 33.633906 -117.313861 115 5624ft 133kts
08-Aug-17 22:06 33.618349 -117.275051 117 5626ft 126kts
08-Aug-17 22:07 33.592915 -117.246874 143 5628ft 124kts
08-Aug-17 22:08 33.562905 -117.224588 155 5630ft 132kts
08-Aug-17 22:09 33.528968 -117.205403 155 5628ft 137kts
08-Aug-17 22:10 33.494680 -117.186365 155 5625ft 134kts
08-Aug-17 22:11 33.460962 -117.167793 155 5628ft 133kts
08-Aug-17 22:12 33.426654 -117.148602 155 5486ft 142kts
08-Aug-17 22:13 33.391496 -117.128827 155 5487ft 137kts
08-Aug-17 22:14 33.369855 -117.093177 118 5485ft 135kts
08-Aug-17 22:15 33.351663 -117.053848 118 5485ft 135kts
08-Aug-17 22:16 33.333496 -117.014512 118 5485ft 135kts
08-Aug-17 22:17 33.308018 -116.985692 154 5486ft 134kts
08-Aug-17 22:18 33.274457 -116.965791 154 5485ft 134kts
08-Aug-17 22:19 33.240920 -116.945976 154 5487ft 134kts
08-Aug-17 22:20 33.207798 -116.926972 154 5485ft 131kts
08-Aug-17 22:21 33.174982 -116.908020 154 5486ft 132kts
08-Aug-17 22:22 33.142217 -116.888368 154 5485ft 132kts
08-Aug-17 22:23 33.109472 -116.868629 154 5484ft 132kts
08-Aug-17 22:24 33.076444 -116.848833 154 5486ft 133kts
08-Aug-17 22:25 33.043642 -116.829366 154 5512ft 131kts
08-Aug-17 22:26 33.011158 -116.809821 154 5512ft 131kts
08-Aug-17 22:27 32.975820 -116.804521 177 5516ft 134kts
08-Aug-17 22:28 32.937715 -116.801533 177 5513ft 141kts
08-Aug-17 22:29 32.904841 -116.798969 177 5513ft 143kts
08-Aug-17 22:30 32.857853 -116.795003 177 5513ft 147kts
08-Aug-17 22:31 32.815710 -116.791719 177 5242ft 161kts
08-Aug-17 22:32 32.769971 -116.792525 207 4748ft 171kts
08-Aug-17 22:33 32.733742 -116.809710 199 4510ft 162kts
08-Aug-17 22:34 32.693373 -116.825837 201 4511ft 147kts
08-Aug-17 22:35 32.653979 -116.855996 217 4166ft 153kts
08-Aug-17 22:36 32.617692 -116.880306 204 3654ft 146kts
08-Aug-17 22:37 32.587361 -116.891396 188 2966ft 135kts
08-Aug-17 22:38 32.566210 -116.911770 279 1784ft 99kts
08-Aug-17 22:39 32.569780 -116.944904 274 1118ft 96kts
08-Aug-17 22:40 32.571963 -116.971569 277 528ft 63kts
08-Aug-17 22:41 32.572095 -116.984147 184 528ft 0kts
08-Aug-17 22:42 32.572095 -116.984147 184 528ft 0kts
08-Aug-17 22:43 32.572085 -116.984148 185 528ft 2kts
08-Aug-17 22:44 32.570830 -116.988621 166 528ft 15kts
08-Aug-17 22:45 32.570721 -116.988369 67 528ft 0kts
08-Aug-17 22:46 32.570721 -116.988369 67 528ft 0kts
08-Aug-17 22:47 32.570721 -116.988369 67 528ft 0kts
08-Aug-17 22:48 32.571408 -116.991945 268 528ft 19kts
08-Aug-17 22:49 32.571380 -116.992658 2 528ft 0kts
08-Aug-17 22:50 32.571380 -116.992658 2 528ft 0kts
08-Aug-17 22:51 32.571380 -116.992658 2 528ft 0kts
08-Aug-17 22:52 32.571380 -116.992658 2 528ft 0kts
08-Aug-17 22:53 32.571380 -116.992658 2 528ft 0kts
08-Aug-17 22:54 32.571380 -116.992658 2 528ft 0kts
08-Aug-17 22:55 32.571380 -116.992658 2 528ft 0kts

Navigation Log

Ident Type
Flight plan parsing failed, navigation log unavailable